チタ の空港の天気 - METARとTAF

チタ・カダラ空港 ( UIAA / HTA ) - ロシア チタ
飛行場実況気象(Metar)
観測時間06/21 13:00 YAKT (06/21 04:00 UTC)
風向・風速東北東 2m/s
視程10km以上
天気現象
なし
気温27℃
湿度37%
気圧1003hPa
METARUIAA 210400Z 07002MPS 040V120 9999 NSC 27/11 Q1003 R29/70D NOSIG RMK QFE694/0926
過去の天気等 Google飛行場航空写真 Wunderground天気予報

過去48時間のMETAR

飛行場予報(TAF)
発表時間: 6/21 11:00 YAKT (6/21 02:00 UTC)
予報対象時間: 21日12時 YAKT ~ 22日12時 YAKT
風向・風速西 3m/s
視程10km以上
全天の4割程度の積乱雲 雲底高度 1220m
21日12時 YAKT ~ 21日21時 YAKT に一時的に
風向・風速不定 8m/s
天気現象弱い雷雨
TAF UIAA 210200Z 2103/2203 26003MPS 9999 SCT040CB
TEMPO 2103/2112 VRB08MPS -TSRA